createdAt,value
2018-12-16T00:00:52.788Z,14.83
2018-12-16T00:03:23.490Z,15.67
2018-12-16T00:05:54.337Z,15.97
2018-12-16T00:08:25.191Z,15.27
2018-12-16T00:10:55.898Z,16.83
2018-12-16T00:13:26.846Z,16.60
2018-12-16T00:15:57.877Z,15.60
2018-12-16T00:18:28.815Z,16.53
2018-12-16T00:21:00.822Z,15.83
2018-12-16T00:23:31.638Z,15.63
2018-12-16T00:26:02.375Z,16.50
2018-12-16T00:28:33.286Z,16.47
2018-12-16T00:31:04.230Z,19.37
2018-12-16T00:33:35.078Z,17.13
2018-12-16T00:36:06.065Z,15.10
2018-12-16T00:38:36.743Z,16.90
2018-12-16T00:41:07.758Z,15.40
2018-12-16T00:43:38.726Z,15.03
2018-12-16T00:46:10.137Z,14.37
2018-12-16T00:48:40.923Z,16.50
2018-12-16T00:51:12.509Z,16.07
2018-12-16T00:53:43.797Z,15.60
2018-12-16T00:56:14.764Z,15.33
2018-12-16T00:58:45.716Z,15.07
2018-12-16T01:01:16.467Z,15.30
2018-12-16T01:03:47.155Z,14.83
2018-12-16T01:06:17.708Z,14.57
2018-12-16T01:08:49.019Z,15.20
2018-12-16T01:11:19.738Z,13.40
2018-12-16T01:13:50.912Z,14.87
2018-12-16T01:16:22.034Z,14.40
2018-12-16T01:18:53.227Z,14.87
2018-12-16T01:21:24.158Z,15.37
2018-12-16T01:23:56.436Z,15.07
2018-12-16T01:26:27.284Z,14.43
2018-12-16T01:28:57.954Z,14.50
2018-12-16T01:31:28.648Z,15.13
2018-12-16T01:33:59.476Z,13.50
2018-12-16T01:36:30.128Z,14.90
2018-12-16T01:39:00.942Z,13.20
2018-12-16T01:41:31.503Z,15.57
2018-12-16T01:44:02.032Z,14.77
2018-12-16T01:46:33.226Z,13.97
2018-12-16T01:49:03.768Z,13.50
2018-12-16T01:51:34.999Z,13.13
2018-12-16T01:54:06.704Z,13.53
2018-12-16T01:56:37.608Z,13.53
2018-12-16T01:59:08.793Z,14.03
2018-12-16T02:01:44.039Z,14.50
2018-12-16T02:04:15.237Z,13.60
2018-12-16T02:06:45.880Z,12.60
2018-12-16T02:09:16.839Z,14.60
2018-12-16T02:11:47.422Z,14.33
2018-12-16T02:14:18.014Z,15.53
2018-12-16T02:16:48.845Z,14.37
2018-12-16T02:19:19.619Z,13.50
2018-12-16T02:21:50.217Z,14.33
2018-12-16T02:24:21.417Z,14.27
2018-12-16T02:26:52.428Z,14.33
2018-12-16T02:29:22.983Z,14.30
2018-12-16T02:31:53.647Z,14.10
2018-12-16T02:34:24.471Z,14.20
2018-12-16T02:36:55.323Z,14.70
2018-12-16T02:39:26.198Z,13.33
2018-12-16T02:41:56.810Z,13.93
2018-12-16T02:44:28.144Z,12.77
2018-12-16T02:46:58.976Z,13.80
2018-12-16T02:49:29.669Z,14.00
2018-12-16T02:52:00.464Z,13.20
2018-12-16T02:54:31.201Z,14.97
2018-12-16T02:57:01.996Z,14.93
2018-12-16T02:59:32.569Z,13.40
2018-12-16T03:02:03.189Z,14.20
2018-12-16T03:04:33.759Z,14.70
2018-12-16T03:07:04.695Z,14.30
2018-12-16T03:09:35.469Z,14.43
2018-12-16T03:12:06.275Z,14.70
2018-12-16T03:14:37.214Z,14.17
2018-12-16T03:17:07.789Z,14.50
2018-12-16T03:19:38.640Z,12.97
2018-12-16T03:22:09.308Z,14.10
2018-12-16T03:24:39.937Z,14.63
2018-12-16T03:27:11.691Z,13.03
2018-12-16T03:29:42.702Z,14.27
2018-12-16T03:32:13.240Z,11.63
2018-12-16T03:34:43.890Z,11.70
2018-12-16T03:37:14.788Z,12.93
2018-12-16T03:39:45.611Z,13.27
2018-12-16T03:42:16.651Z,14.10
2018-12-16T03:44:47.205Z,14.10
2018-12-16T03:47:18.826Z,13.70
2018-12-16T03:49:49.413Z,14.40
2018-12-16T03:52:20.387Z,11.77
2018-12-16T03:54:51.645Z,11.13
2018-12-16T03:57:22.893Z,10.33
2018-12-16T03:59:53.852Z,10.73
2018-12-16T04:02:24.636Z,12.27
2018-12-16T04:04:55.962Z,13.00
2018-12-16T04:07:26.550Z,11.97
2018-12-16T04:09:57.318Z,10.13
2018-12-16T04:12:28.393Z,12.93
2018-12-16T04:14:59.021Z,13.10
2018-12-16T04:17:29.733Z,13.40
2018-12-16T04:20:00.563Z,12.13
2018-12-16T04:22:31.717Z,13.70
2018-12-16T04:25:02.455Z,12.57
2018-12-16T04:27:33.186Z,12.90
2018-12-16T04:30:05.173Z,13.23
2018-12-16T04:32:36.109Z,12.43
2018-12-16T04:35:07.419Z,12.37
2018-12-16T04:37:38.345Z,11.40
2018-12-16T04:40:08.926Z,11.23
2018-12-16T04:42:39.884Z,12.80
2018-12-16T04:45:11.947Z,11.90
2018-12-16T04:47:42.522Z,12.07
2018-12-16T04:50:13.676Z,13.23
2018-12-16T04:52:44.328Z,11.97
2018-12-16T04:55:14.868Z,12.10
2018-12-16T04:57:45.455Z,11.70
2018-12-16T05:00:16.439Z,12.63
2018-12-16T05:02:47.026Z,12.30
2018-12-16T05:05:18.252Z,12.00
2018-12-16T05:07:49.645Z,11.93
2018-12-16T05:10:30.871Z,12.23
2018-12-16T05:13:01.426Z,12.30
2018-12-16T05:15:32.499Z,12.77
2018-12-16T05:18:03.292Z,12.30
2018-12-16T05:20:34.519Z,13.40
2018-12-16T05:23:05.049Z,12.10
2018-12-16T05:25:36.487Z,12.27
2018-12-16T05:28:08.043Z,12.17
2018-12-16T05:30:40.176Z,13.17
2018-12-16T05:33:11.050Z,15.00
2018-12-16T05:38:42.791Z,13.93
2018-12-16T05:41:13.754Z,14.23
2018-12-16T05:43:44.399Z,14.33
2018-12-16T05:46:14.918Z,13.77
2018-12-16T05:48:46.039Z,14.03
2018-12-16T05:51:17.015Z,14.20
2018-12-16T05:53:48.756Z,14.20
2018-12-16T05:56:19.978Z,14.33
2018-12-16T05:58:50.739Z,13.40
2018-12-16T06:01:21.241Z,13.40
2018-12-16T06:03:52.187Z,13.40
2018-12-16T06:06:22.882Z,11.23
2018-12-16T06:08:53.826Z,12.10
2018-12-16T06:11:24.698Z,13.93
2018-12-16T06:13:55.363Z,13.97
2018-12-16T06:16:26.079Z,14.93
2018-12-16T06:18:57.517Z,13.80
2018-12-16T06:21:28.215Z,14.10
2018-12-16T06:23:59.511Z,14.00
2018-12-16T06:26:31.761Z,13.80
2018-12-16T06:29:03.177Z,8.20
2018-12-16T06:31:33.699Z,7.80
2018-12-16T06:34:04.580Z,8.63
2018-12-16T06:36:35.891Z,8.57
2018-12-16T06:39:06.999Z,9.30
2018-12-16T06:41:38.068Z,10.20
2018-12-16T06:44:09.082Z,11.20
2018-12-16T06:46:39.591Z,12.80
2018-12-16T06:49:10.344Z,12.30
2018-12-16T06:51:41.407Z,13.33
2018-12-16T06:54:12.566Z,14.20
2018-12-16T06:56:43.286Z,14.23
2018-12-16T06:59:13.878Z,12.83
2018-12-16T07:01:44.823Z,13.73
2018-12-16T07:04:15.968Z,13.40
2018-12-16T07:06:46.836Z,12.07
2018-12-16T07:09:17.643Z,11.67
2018-12-16T07:11:48.492Z,12.73
2018-12-16T07:14:19.625Z,10.37
2018-12-16T07:16:50.664Z,12.10
2018-12-16T07:19:21.842Z,9.83
2018-12-16T07:21:52.867Z,12.23
2018-12-16T07:24:23.592Z,13.87
2018-12-16T07:26:54.905Z,13.10
2018-12-16T07:29:25.746Z,11.00
2018-12-16T07:31:56.890Z,11.40
2018-12-16T07:34:27.682Z,11.67
2018-12-16T07:36:58.814Z,10.50
2018-12-16T07:39:29.831Z,10.60
2018-12-16T07:42:00.999Z,11.40
2018-12-16T07:44:31.492Z,12.77
2018-12-16T07:47:03.019Z,11.80
2018-12-16T07:49:33.867Z,50.30
2018-12-16T07:52:04.872Z,12.20
2018-12-16T07:54:36.105Z,9.70
2018-12-16T07:57:06.963Z,10.37
2018-12-16T07:59:37.937Z,10.63
2018-12-16T08:02:09.225Z,12.87
2018-12-16T08:04:40.218Z,15.27
2018-12-16T08:07:12.186Z,12.80
2018-12-16T08:09:43.579Z,15.40
2018-12-16T08:12:14.215Z,15.23
2018-12-16T08:14:44.923Z,14.20
2018-12-16T08:17:15.746Z,15.20
2018-12-16T08:19:46.608Z,17.13
2018-12-16T08:22:17.467Z,13.57
2018-12-16T08:24:48.598Z,13.90
2018-12-16T08:27:19.199Z,13.47
2018-12-16T08:29:50.803Z,13.97
2018-12-16T08:32:21.713Z,14.40
2018-12-16T08:34:52.590Z,16.37
2018-12-16T08:37:24.953Z,16.83
2018-12-16T08:39:55.615Z,15.00
2018-12-16T08:42:26.999Z,16.03
2018-12-16T08:44:58.052Z,14.90
2018-12-16T08:47:33.036Z,15.50
2018-12-16T08:50:02.192Z,14.77
2018-12-16T08:52:33.041Z,15.60
2018-12-16T08:55:04.350Z,14.90
2018-12-16T08:57:35.013Z,14.80
2018-12-16T09:00:06.457Z,17.53
2018-12-16T09:02:37.286Z,12.90
2018-12-16T09:05:08.924Z,14.50
2018-12-16T09:07:39.574Z,15.10
2018-12-16T09:10:11.331Z,16.40
2018-12-16T09:12:42.018Z,18.03
2018-12-16T09:15:12.862Z,18.37
2018-12-16T09:17:43.967Z,18.33
2018-12-16T09:20:14.988Z,18.60
2018-12-16T09:22:45.668Z,18.97
2018-12-16T09:25:16.347Z,17.57
2018-12-16T09:27:47.290Z,17.57
2018-12-16T09:30:18.229Z,17.80
2018-12-16T09:32:49.116Z,17.33
2018-12-16T09:35:20.116Z,18.60
2018-12-16T09:37:50.901Z,16.77
2018-12-16T09:40:21.706Z,17.00
2018-12-16T09:42:52.400Z,16.10
2018-12-16T09:45:23.183Z,18.67
2018-12-16T09:47:54.043Z,17.40
2018-12-16T09:50:25.074Z,17.60
2018-12-16T09:52:55.955Z,16.27
2018-12-16T09:55:26.531Z,16.90
2018-12-16T09:57:57.242Z,17.07
2018-12-16T10:00:28.080Z,17.00
2018-12-16T10:02:59.239Z,17.97
2018-12-16T10:05:30.290Z,16.40
2018-12-16T10:08:01.506Z,16.80
2018-12-16T10:10:32.297Z,16.13
2018-12-16T10:13:03.061Z,17.60
2018-12-16T10:15:34.025Z,16.83
2018-12-16T10:18:05.220Z,17.97
2018-12-16T10:20:36.080Z,17.70
2018-12-16T10:23:07.340Z,17.30
2018-12-16T10:25:38.282Z,17.73
2018-12-16T10:28:08.818Z,17.03
2018-12-16T10:30:39.795Z,15.33
2018-12-16T10:33:10.828Z,16.83
2018-12-16T10:35:41.972Z,16.40
2018-12-16T10:38:12.869Z,17.10
2018-12-16T10:40:43.631Z,15.57
2018-12-16T10:43:14.767Z,15.10
2018-12-16T10:45:45.470Z,16.00
2018-12-16T10:48:16.453Z,13.97
2018-12-16T10:50:47.426Z,14.10
2018-12-16T10:53:18.731Z,15.47
2018-12-16T10:55:49.571Z,12.90
2018-12-16T10:58:20.720Z,14.20
2018-12-16T11:00:56.894Z,13.40
2018-12-16T11:03:27.915Z,13.83
2018-12-16T11:05:59.675Z,12.57
2018-12-16T11:08:31.043Z,13.87
2018-12-16T11:11:01.966Z,13.90
2018-12-16T11:13:32.802Z,13.40
2018-12-16T11:16:03.514Z,13.90
2018-12-16T11:18:34.755Z,13.70
2018-12-16T11:21:05.919Z,13.30
2018-12-16T11:23:36.774Z,13.20
2018-12-16T11:26:07.924Z,12.50
2018-12-16T11:28:38.572Z,13.30
2018-12-16T11:31:09.267Z,13.63
2018-12-16T11:33:40.290Z,13.90
2018-12-16T11:36:10.992Z,13.47
2018-12-16T11:38:41.622Z,14.10
2018-12-16T11:41:12.934Z,14.17
2018-12-16T11:43:43.455Z,14.50
2018-12-16T11:46:14.140Z,13.40
2018-12-16T11:48:45.035Z,14.50
2018-12-16T11:51:15.986Z,13.20
2018-12-16T11:53:47.113Z,13.03
2018-12-16T11:56:18.470Z,12.90
2018-12-16T11:58:49.534Z,14.57
2018-12-16T12:01:20.420Z,18.30
2018-12-16T12:03:51.495Z,14.60
2018-12-16T12:06:22.214Z,15.23
2018-12-16T12:08:53.162Z,16.40
2018-12-16T12:11:24.194Z,15.70
2018-12-16T12:13:54.739Z,15.60
2018-12-16T12:16:27.689Z,14.43
2018-12-16T12:19:02.698Z,15.70
2018-12-16T12:21:33.399Z,15.03
2018-12-16T12:24:04.841Z,15.03
2018-12-16T12:26:35.856Z,15.30
2018-12-16T12:29:06.641Z,16.10
2018-12-16T12:31:37.395Z,16.70
2018-12-16T12:34:08.198Z,15.97
2018-12-16T12:36:38.854Z,16.83
2018-12-16T12:39:09.546Z,17.07
2018-12-16T12:41:40.227Z,16.97
2018-12-16T12:44:10.759Z,16.40
2018-12-16T12:46:41.476Z,17.23
2018-12-16T12:49:12.161Z,16.90
2018-12-16T12:51:43.217Z,17.53
2018-12-16T12:54:14.283Z,18.17
2018-12-16T12:56:45.423Z,19.13
2018-12-16T12:59:15.962Z,19.10
2018-12-16T13:01:46.622Z,19.17
2018-12-16T13:04:17.417Z,25.40
2018-12-16T13:06:48.057Z,19.60
2018-12-16T13:09:18.806Z,21.40
2018-12-16T13:11:49.563Z,21.53
2018-12-16T13:14:20.673Z,19.90
2018-12-16T13:16:51.767Z,20.60
2018-12-16T13:19:22.821Z,19.60
2018-12-16T13:21:53.954Z,21.90
2018-12-16T13:24:25.010Z,22.10
2018-12-16T13:26:56.701Z,20.63
2018-12-16T13:29:27.543Z,20.50
2018-12-16T13:31:58.359Z,19.30
2018-12-16T13:34:29.148Z,20.73
2018-12-16T13:36:59.724Z,20.47
2018-12-16T13:39:30.427Z,21.40
2018-12-16T13:42:02.103Z,21.17
2018-12-16T13:44:33.158Z,21.03
2018-12-16T13:47:04.174Z,21.43
2018-12-16T13:49:35.362Z,21.73
2018-12-16T13:52:06.879Z,21.40
2018-12-16T13:54:37.757Z,20.90
2018-12-16T13:57:08.267Z,20.57
2018-12-16T13:59:39.370Z,22.77
2018-12-16T14:02:10.371Z,22.77
2018-12-16T14:04:41.290Z,22.20
2018-12-16T14:07:12.094Z,21.90
2018-12-16T14:09:43.431Z,21.90
2018-12-16T14:12:14.213Z,20.60
2018-12-16T14:14:45.274Z,22.10
2018-12-16T14:17:16.344Z,20.97
2018-12-16T14:19:46.872Z,20.60
2018-12-16T14:22:18.121Z,24.30
2018-12-16T14:24:48.708Z,20.90
2018-12-16T14:27:19.536Z,20.73
2018-12-16T14:29:50.387Z,20.80
2018-12-16T14:32:21.038Z,20.63
2018-12-16T14:34:51.918Z,21.93
2018-12-16T14:37:22.746Z,20.93
2018-12-16T14:39:53.599Z,20.27
2018-12-16T14:42:24.634Z,20.00
2018-12-16T14:44:55.420Z,23.93
2018-12-16T14:47:26.248Z,21.40
2018-12-16T14:49:57.100Z,21.40
2018-12-16T14:52:27.951Z,21.60
2018-12-16T14:54:58.797Z,22.37
2018-12-16T14:57:29.598Z,22.07
2018-12-16T15:00:00.950Z,21.90
2018-12-16T15:02:31.550Z,21.77
2018-12-16T15:05:02.283Z,20.40
2018-12-16T15:07:33.315Z,21.67
2018-12-16T15:10:06.727Z,22.73
2018-12-16T15:12:37.425Z,22.03
2018-12-16T15:15:09.080Z,24.40
2018-12-16T15:17:42.887Z,19.97
2018-12-16T15:20:12.963Z,21.57
2018-12-16T15:22:43.830Z,21.40
2018-12-16T15:25:14.349Z,23.03
2018-12-16T15:27:45.343Z,20.77
2018-12-16T15:30:15.851Z,21.33
2018-12-16T15:32:46.789Z,20.00
2018-12-16T15:35:18.062Z,21.77
2018-12-16T15:37:49.024Z,20.23
2018-12-16T15:40:19.915Z,21.00
2018-12-16T15:42:50.950Z,20.77
2018-12-16T15:45:21.979Z,22.27
2018-12-16T15:47:52.887Z,21.80
2018-12-16T15:50:23.724Z,20.67
2018-12-16T15:52:55.052Z,20.30
2018-12-16T15:55:25.787Z,22.47
2018-12-16T15:57:56.619Z,20.17
2018-12-16T16:00:27.403Z,20.43
2018-12-16T16:02:59.352Z,21.50
2018-12-16T16:05:30.166Z,22.50
2018-12-16T16:08:01.019Z,23.47
2018-12-16T16:10:32.685Z,24.60
2018-12-16T16:13:03.620Z,22.10
2018-12-16T16:15:35.732Z,22.50
2018-12-16T16:18:06.723Z,22.97
2018-12-16T16:20:38.433Z,23.17
2018-12-16T16:23:09.710Z,23.13
2018-12-16T16:25:40.922Z,22.23
2018-12-16T16:28:11.589Z,22.00
2018-12-16T16:30:42.731Z,25.80
2018-12-16T16:33:14.595Z,24.80
2018-12-16T16:35:46.196Z,26.45
2018-12-16T16:38:17.248Z,23.90
2018-12-16T16:40:48.889Z,22.23
2018-12-16T16:43:19.960Z,21.47
2018-12-16T16:45:51.130Z,22.10
2018-12-16T16:48:22.412Z,24.13
2018-12-16T16:50:53.877Z,24.30
2018-12-16T16:53:24.895Z,22.77
2018-12-16T16:55:55.514Z,22.60
2018-12-16T16:58:26.245Z,23.27
2018-12-16T17:00:57.564Z,23.17
2018-12-16T17:03:28.486Z,24.70
2018-12-16T17:06:00.568Z,23.53
2018-12-16T17:08:33.091Z,29.50
2018-12-16T17:11:09.030Z,21.68
2018-12-16T17:13:40.730Z,22.30
2018-12-16T17:16:12.847Z,21.10
2018-12-16T17:18:44.771Z,22.67
2018-12-16T17:21:15.503Z,22.07
2018-12-16T17:23:46.410Z,21.67
2018-12-16T17:26:17.786Z,24.10
2018-12-16T17:28:48.314Z,24.50
2018-12-16T17:31:18.915Z,23.43
2018-12-16T17:33:49.806Z,24.83
2018-12-16T17:36:20.308Z,27.10
2018-12-16T17:38:53.818Z,22.40
2018-12-16T17:41:24.448Z,22.67
2018-12-16T17:43:55.795Z,24.47
2018-12-16T17:46:27.067Z,21.60
2018-12-16T17:48:57.951Z,23.17
2018-12-16T17:51:29.024Z,23.20
2018-12-16T17:54:00.011Z,22.67
2018-12-16T17:56:36.806Z,23.33
2018-12-16T17:59:03.351Z,22.43
2018-12-16T18:01:34.335Z,24.70
2018-12-16T18:04:09.984Z,23.70
2018-12-16T18:06:42.251Z,23.57
2018-12-16T18:09:14.888Z,24.30
2018-12-16T18:11:46.140Z,24.03
2018-12-16T18:14:17.152Z,24.00
2018-12-16T18:16:48.635Z,22.67
2018-12-16T18:19:20.792Z,24.20
2018-12-16T18:21:52.459Z,22.00
2018-12-16T18:24:24.557Z,25.87
2018-12-16T18:26:55.131Z,24.23
2018-12-16T18:29:26.303Z,23.43
2018-12-16T18:31:57.777Z,25.57
2018-12-16T18:34:28.303Z,24.67
2018-12-16T18:36:58.867Z,24.77
2018-12-16T18:39:29.977Z,24.00
2018-12-16T18:42:01.902Z,23.03
2018-12-16T18:44:34.395Z,23.67
2018-12-16T18:47:05.331Z,24.27
2018-12-16T18:49:35.950Z,24.07
2018-12-16T18:52:07.925Z,24.10
2018-12-16T18:54:39.147Z,26.07
2018-12-16T18:57:11.511Z,23.03
2018-12-16T18:59:42.881Z,24.23
2018-12-16T19:02:13.817Z,25.07
2018-12-16T19:04:44.742Z,24.20
2018-12-16T19:07:16.195Z,25.73
2018-12-16T19:09:46.819Z,25.03
2018-12-16T19:12:17.615Z,24.43
2018-12-16T19:14:49.202Z,27.80
2018-12-16T19:17:20.442Z,25.53
2018-12-16T19:19:51.954Z,26.00
2018-12-16T19:22:22.623Z,24.00
2018-12-16T19:24:53.669Z,26.20
2018-12-16T19:27:25.190Z,24.53
2018-12-16T19:30:00.953Z,24.90
2018-12-16T19:32:33.010Z,25.20
2018-12-16T19:35:04.134Z,24.80
2018-12-16T19:37:35.397Z,25.50
2018-12-16T19:40:07.078Z,26.50
2018-12-16T19:42:38.643Z,25.20
2018-12-16T19:45:09.514Z,25.50
2018-12-16T19:47:40.655Z,24.17
2018-12-16T19:50:11.613Z,25.70
2018-12-16T19:53:02.236Z,26.17
2018-12-16T19:55:34.118Z,27.30
2018-12-16T19:58:05.967Z,26.63
2018-12-16T20:00:46.008Z,26.77
2018-12-16T20:03:16.841Z,26.67
2018-12-16T20:05:59.806Z,24.97
2018-12-16T20:08:30.511Z,27.63
2018-12-16T20:11:01.474Z,26.93
2018-12-16T20:13:32.155Z,26.70
2018-12-16T20:16:03.620Z,26.10
2018-12-16T20:18:34.366Z,26.23
2018-12-16T20:21:06.223Z,27.33
2018-12-16T20:23:37.174Z,27.63
2018-12-16T20:26:08.381Z,26.90
2018-12-16T20:28:39.186Z,26.10
2018-12-16T20:31:10.098Z,25.17
2018-12-16T20:33:40.987Z,26.00
2018-12-16T20:36:11.760Z,26.23
2018-12-16T20:38:42.898Z,27.97
2018-12-16T20:41:14.044Z,26.63
2018-12-16T20:43:45.325Z,28.03
2018-12-16T20:46:16.142Z,26.17
2018-12-16T20:48:46.859Z,33.70
2018-12-16T20:51:17.696Z,26.40
2018-12-16T20:53:48.190Z,28.60
2018-12-16T20:56:29.231Z,26.53
2018-12-16T20:59:00.352Z,25.00
2018-12-16T21:01:30.901Z,25.67
2018-12-16T21:04:01.845Z,28.47
2018-12-16T21:06:32.966Z,28.23
2018-12-16T21:09:04.879Z,28.30
2018-12-16T21:11:41.538Z,27.10
2018-12-16T21:14:18.151Z,30.17
2018-12-16T21:16:53.710Z,27.37
2018-12-16T21:19:25.379Z,29.13
2018-12-16T21:21:56.038Z,26.63
2018-12-16T21:24:47.962Z,27.40
2018-12-16T21:27:25.819Z,28.53
2018-12-16T21:29:51.922Z,27.83
2018-12-16T21:32:23.198Z,27.77
2018-12-16T21:34:53.975Z,27.37
2018-12-16T21:37:28.747Z,28.80
2018-12-16T21:39:59.845Z,45.60
2018-12-16T21:42:30.510Z,30.20
2018-12-16T21:45:02.745Z,29.57
2018-12-16T21:47:33.822Z,27.30
2018-12-16T21:50:05.427Z,29.20
2018-12-16T21:52:36.461Z,27.87
2018-12-16T21:55:08.085Z,28.33
2018-12-16T21:57:38.752Z,27.70
2018-12-16T22:00:11.043Z,27.30
2018-12-16T22:02:41.960Z,27.77
2018-12-16T22:07:56.165Z,28.93
2018-12-16T22:10:28.852Z,29.63
2018-12-16T22:12:59.615Z,30.70
2018-12-16T22:15:30.584Z,28.70
2018-12-16T22:18:01.419Z,27.43
2018-12-16T22:20:31.949Z,28.43
2018-12-16T22:23:02.650Z,29.17
2018-12-16T22:25:34.071Z,29.60
2018-12-16T22:28:04.778Z,28.97
2018-12-16T22:30:35.930Z,28.90
2018-12-16T22:33:07.075Z,28.53
2018-12-16T22:35:37.888Z,28.67
2018-12-16T22:38:08.571Z,28.47
2018-12-16T22:40:45.366Z,29.90
2018-12-16T22:43:28.550Z,29.10
2018-12-16T22:45:59.924Z,30.17
2018-12-16T22:48:30.574Z,29.27
2018-12-16T22:51:01.371Z,31.60
2018-12-16T22:53:32.207Z,29.47
2018-12-16T22:56:02.750Z,28.70
2018-12-16T22:58:33.572Z,29.17
2018-12-16T23:01:09.905Z,29.13
2018-12-16T23:03:40.602Z,29.83
2018-12-16T23:06:11.491Z,28.00
2018-12-16T23:08:42.467Z,28.87
2018-12-16T23:11:13.376Z,33.07
2018-12-16T23:13:44.163Z,30.63
2018-12-16T23:16:15.886Z,26.67
2018-12-16T23:18:46.875Z,26.50
2018-12-16T23:21:17.866Z,28.37
2018-12-16T23:23:49.012Z,30.57
2018-12-16T23:26:20.339Z,28.13
2018-12-16T23:28:52.381Z,29.90
2018-12-16T23:31:24.338Z,29.80
2018-12-16T23:33:55.296Z,31.20
2018-12-16T23:36:26.404Z,29.30
2018-12-16T23:38:57.415Z,29.70
2018-12-16T23:41:28.253Z,31.53
2018-12-16T23:43:59.073Z,30.37
2018-12-16T23:46:29.625Z,28.77
2018-12-16T23:49:00.429Z,30.60
2018-12-16T23:51:31.070Z,29.93
2018-12-16T23:54:02.415Z,29.70
2018-12-16T23:56:33.078Z,28.43
2018-12-16T23:59:04.046Z,29.27
